createdAt,value
2023-03-30T00:01:36.883Z,7.82
2023-03-30T00:04:05.117Z,7.00
2023-03-30T00:06:34.269Z,6.22
2023-03-30T00:09:06.203Z,7.28
2023-03-30T00:11:34.371Z,9.20
2023-03-30T00:14:02.860Z,6.60
2023-03-30T00:16:30.785Z,6.50
2023-03-30T00:18:58.943Z,7.43
2023-03-30T00:21:28.159Z,8.57
2023-03-30T00:23:55.863Z,5.35
2023-03-30T00:26:24.958Z,9.57
2023-03-30T00:28:52.937Z,6.82
2023-03-30T00:31:21.155Z,8.57
2023-03-30T00:33:50.246Z,11.18
2023-03-30T00:36:18.096Z,7.50
2023-03-30T00:38:48.233Z,5.72
2023-03-30T00:41:16.968Z,7.07
2023-03-30T00:44:30.215Z,5.93
2023-03-30T00:46:59.983Z,8.05
2023-03-30T00:49:28.120Z,5.55
2023-03-30T00:51:55.946Z,10.35
2023-03-30T00:54:23.783Z,8.40
2023-03-30T00:56:51.619Z,6.05
2023-03-30T00:59:20.852Z,7.32
2023-03-30T01:01:50.255Z,5.82
2023-03-30T01:04:18.791Z,6.80
2023-03-30T01:06:47.983Z,6.30
2023-03-30T01:09:17.382Z,5.72
2023-03-30T01:11:45.487Z,8.77
2023-03-30T01:14:16.091Z,7.75
2023-03-30T01:16:53.571Z,8.50
2023-03-30T01:19:51.193Z,6.35
2023-03-30T01:23:05.214Z,7.25
2023-03-30T01:26:06.965Z,7.60
2023-03-30T01:28:47.411Z,8.80
2023-03-30T01:31:45.582Z,8.55
2023-03-30T01:34:37.037Z,10.05
2023-03-30T01:37:34.639Z,7.97
2023-03-30T01:44:59.852Z,6.63
2023-03-30T01:47:36.371Z,8.05
2023-03-30T01:50:09.844Z,6.18
2023-03-30T01:52:42.588Z,9.98
2023-03-30T01:55:15.000Z,8.57
2023-03-30T01:57:47.606Z,6.75
2023-03-30T02:00:19.217Z,9.32
2023-03-30T02:02:54.503Z,8.77
2023-03-30T02:05:24.100Z,10.05
2023-03-30T02:07:59.818Z,7.88
2023-03-30T02:10:31.544Z,8.90
2023-03-30T02:13:01.000Z,9.52
2023-03-30T02:15:35.607Z,8.52
2023-03-30T02:18:05.241Z,9.00
2023-03-30T02:20:34.525Z,11.32
2023-03-30T02:23:06.062Z,13.10
2023-03-30T02:25:35.941Z,12.52
2023-03-30T02:28:03.949Z,10.43
2023-03-30T02:30:34.390Z,7.75
2023-03-30T02:33:02.526Z,10.05
2023-03-30T02:35:51.602Z,9.73
2023-03-30T02:38:41.689Z,15.98
2023-03-30T02:41:22.468Z,14.18
2023-03-30T02:43:57.149Z,6.25
2023-03-30T02:46:50.492Z,12.30
2023-03-30T02:49:26.790Z,11.98
2023-03-30T02:52:08.904Z,7.63
2023-03-30T02:54:49.694Z,10.85
2023-03-30T02:57:30.832Z,6.25
2023-03-30T03:00:23.723Z,10.65
2023-03-30T03:02:57.389Z,13.52
2023-03-30T03:05:32.479Z,6.45
2023-03-30T03:08:24.794Z,7.40
2023-03-30T03:10:53.058Z,11.07
2023-03-30T03:13:22.052Z,11.98
2023-03-30T03:15:50.630Z,9.10
2023-03-30T03:18:18.472Z,11.82
2023-03-30T03:20:46.452Z,9.77
2023-03-30T03:23:14.485Z,14.95
2023-03-30T03:25:53.154Z,9.23
2023-03-30T03:28:21.625Z,7.82
2023-03-30T03:30:53.382Z,9.48
2023-03-30T03:33:27.061Z,7.28
2023-03-30T03:36:12.111Z,7.15
2023-03-30T03:38:46.019Z,8.32
2023-03-30T03:41:16.505Z,10.73
2023-03-30T03:43:45.128Z,10.77
2023-03-30T03:46:16.342Z,10.52
2023-03-30T03:48:44.869Z,11.70
2023-03-30T03:51:12.712Z,10.23
2023-03-30T03:53:40.662Z,9.38
2023-03-30T03:56:14.339Z,12.20
2023-03-30T03:58:43.613Z,7.10
2023-03-30T04:01:14.308Z,6.65
2023-03-30T04:03:42.512Z,11.93
2023-03-30T04:06:10.284Z,7.50
2023-03-30T04:08:38.139Z,7.93
2023-03-30T04:11:26.618Z,7.72
2023-03-30T04:14:24.455Z,10.63
2023-03-30T04:17:09.224Z,12.13
2023-03-30T04:20:04.816Z,11.15
2023-03-30T04:22:53.210Z,12.52
2023-03-30T04:25:52.853Z,7.68
2023-03-30T04:28:40.181Z,11.55
2023-03-30T04:31:23.856Z,13.68
2023-03-30T04:34:09.388Z,9.23
2023-03-30T04:36:51.446Z,8.68
2023-03-30T04:39:29.983Z,10.93
2023-03-30T04:42:19.969Z,12.30
2023-03-30T04:44:59.867Z,9.82
2023-03-30T04:47:47.371Z,13.75
2023-03-30T04:50:35.602Z,13.43
2023-03-30T04:53:26.274Z,8.77
2023-03-30T04:56:26.126Z,9.27
2023-03-30T04:58:57.021Z,10.88
2023-03-30T05:01:41.908Z,13.90
2023-03-30T05:04:13.491Z,12.10
2023-03-30T05:06:59.723Z,9.45
2023-03-30T05:09:49.190Z,10.57
2023-03-30T05:12:39.740Z,11.32
2023-03-30T05:15:15.913Z,6.88
2023-03-30T05:17:43.518Z,8.90
2023-03-30T05:20:31.656Z,7.32
2023-03-30T05:23:09.356Z,12.27
2023-03-30T05:25:56.053Z,9.48
2023-03-30T05:28:44.764Z,7.25
2023-03-30T05:31:38.152Z,18.90
2023-03-30T05:34:28.917Z,8.27
2023-03-30T05:37:11.697Z,6.00
2023-03-30T05:39:44.524Z,12.15
2023-03-30T05:42:35.080Z,9.85
2023-03-30T05:45:11.703Z,8.38
2023-03-30T05:47:58.255Z,12.35
2023-03-30T05:50:49.230Z,8.60
2023-03-30T05:53:28.555Z,11.68
2023-03-30T05:56:15.684Z,15.82
2023-03-30T05:58:57.001Z,11.13
2023-03-30T06:01:40.676Z,9.23
2023-03-30T06:04:08.862Z,10.13
2023-03-30T06:06:37.548Z,11.30
2023-03-30T06:09:06.630Z,11.80
2023-03-30T06:11:36.159Z,14.50
2023-03-30T06:14:12.921Z,12.65
2023-03-30T06:16:44.833Z,17.48
2023-03-30T06:19:14.523Z,16.65
2023-03-30T06:21:42.118Z,13.95
2023-03-30T06:24:27.748Z,12.52
2023-03-30T06:26:56.392Z,11.32
2023-03-30T06:29:24.246Z,11.48
2023-03-30T06:31:52.105Z,12.32
2023-03-30T06:34:46.019Z,10.75
2023-03-30T06:37:15.448Z,9.45
2023-03-30T06:39:45.848Z,9.85
2023-03-30T06:42:13.543Z,9.55
2023-03-30T06:44:58.187Z,12.70
2023-03-30T06:47:26.170Z,7.57
2023-03-30T06:49:53.758Z,10.93
2023-03-30T06:52:53.612Z,8.60
2023-03-30T06:55:24.011Z,7.75
2023-03-30T06:57:51.638Z,9.23
2023-03-30T07:00:20.622Z,9.57
2023-03-30T07:03:07.277Z,11.13
2023-03-30T07:06:02.758Z,10.35
2023-03-30T07:08:40.253Z,9.95
2023-03-30T07:11:09.666Z,8.90
2023-03-30T07:13:40.070Z,8.05
2023-03-30T07:16:08.909Z,14.38
2023-03-30T07:18:36.698Z,8.57
2023-03-30T07:21:06.108Z,12.52
2023-03-30T07:23:39.366Z,6.40
2023-03-30T07:26:08.978Z,8.82
2023-03-30T07:28:48.159Z,8.40
2023-03-30T07:31:17.128Z,9.52
2023-03-30T07:33:44.975Z,14.52
2023-03-30T07:36:20.831Z,22.38
2023-03-30T07:38:48.530Z,11.40
2023-03-30T07:41:19.634Z,11.38
2023-03-30T07:43:51.374Z,7.68
2023-03-30T07:46:19.142Z,6.05
2023-03-30T07:48:50.624Z,7.68
2023-03-30T07:51:20.114Z,7.28
2023-03-30T07:54:07.161Z,4.35
2023-03-30T07:56:52.499Z,7.80
2023-03-30T07:59:20.538Z,12.05
2023-03-30T08:01:50.205Z,7.93
2023-03-30T08:04:39.091Z,6.82
2023-03-30T08:07:08.049Z,5.65
2023-03-30T08:09:35.858Z,5.45
2023-03-30T08:12:05.464Z,6.47
2023-03-30T08:14:33.010Z,8.15
2023-03-30T08:17:00.570Z,6.22
2023-03-30T08:19:28.587Z,12.55
2023-03-30T08:21:57.146Z,4.80
2023-03-30T08:24:25.046Z,5.30
2023-03-30T08:26:52.626Z,7.43
2023-03-30T08:29:22.018Z,4.90
2023-03-30T08:31:49.572Z,6.57
2023-03-30T08:34:17.132Z,3.75
2023-03-30T08:36:44.748Z,6.13
2023-03-30T08:39:12.278Z,4.32
2023-03-30T08:42:01.874Z,4.18
2023-03-30T08:44:35.334Z,4.10
2023-03-30T08:49:37.002Z,3.65
2023-03-30T08:52:06.290Z,5.30
2023-03-30T08:54:34.796Z,4.00
2023-03-30T08:57:09.967Z,3.13
2023-03-30T08:59:45.300Z,4.15
2023-03-30T09:02:18.481Z,7.93
2023-03-30T09:04:58.114Z,4.35
2023-03-30T09:07:28.794Z,4.95
2023-03-30T09:09:58.253Z,3.75
2023-03-30T09:12:34.302Z,5.00
2023-03-30T09:15:08.439Z,3.80
2023-03-30T09:17:42.649Z,3.92
2023-03-30T09:20:16.822Z,5.50
2023-03-30T09:22:46.590Z,2.80
2023-03-30T09:25:17.155Z,2.72
2023-03-30T09:27:53.022Z,4.35
2023-03-30T09:30:24.113Z,2.92
2023-03-30T09:33:03.365Z,5.60
2023-03-30T09:35:39.559Z,6.22
2023-03-30T09:38:10.025Z,2.70
2023-03-30T09:41:01.460Z,3.80
2023-03-30T09:43:34.878Z,4.82
2023-03-30T09:46:07.818Z,3.95
2023-03-30T09:48:43.123Z,10.18
2023-03-30T09:51:21.083Z,6.25
2023-03-30T09:53:51.618Z,5.88
2023-03-30T09:56:23.130Z,7.10
2023-03-30T09:58:50.842Z,8.13
2023-03-30T10:01:22.161Z,5.60
2023-03-30T10:04:08.976Z,7.72
2023-03-30T10:06:39.647Z,4.72
2023-03-30T10:09:12.431Z,4.30
2023-03-30T10:11:43.270Z,4.82
2023-03-30T10:14:29.484Z,5.10
2023-03-30T10:16:59.400Z,4.18
2023-03-30T10:19:27.472Z,3.95
2023-03-30T10:21:57.476Z,4.97
2023-03-30T10:24:27.922Z,2.97
2023-03-30T10:27:01.307Z,5.40
2023-03-30T10:32:02.946Z,4.65
2023-03-30T10:34:37.135Z,7.68
2023-03-30T10:37:11.724Z,5.22
2023-03-30T10:39:41.796Z,6.63
2023-03-30T10:42:15.908Z,4.85
2023-03-30T10:44:48.221Z,5.32
2023-03-30T10:47:36.496Z,3.70
2023-03-30T10:50:13.443Z,5.35
2023-03-30T10:52:58.565Z,4.55
2023-03-30T10:55:34.622Z,6.00
2023-03-30T10:58:13.682Z,4.32
2023-03-30T11:00:56.764Z,3.47
2023-03-30T11:03:29.238Z,6.03
2023-03-30T11:06:04.839Z,6.93
2023-03-30T11:08:38.024Z,5.40
2023-03-30T11:11:07.868Z,4.75
2023-03-30T11:13:39.840Z,3.75
2023-03-30T11:16:13.722Z,2.63
2023-03-30T11:18:49.498Z,5.30
2023-03-30T11:21:22.347Z,5.03
2023-03-30T11:23:54.080Z,4.55
2023-03-30T11:26:25.649Z,4.32
2023-03-30T11:29:02.809Z,6.93
2023-03-30T11:31:57.222Z,4.47
2023-03-30T11:34:32.856Z,3.60
2023-03-30T11:37:09.280Z,5.78
2023-03-30T11:39:42.184Z,5.30
2023-03-30T11:42:17.186Z,4.72
2023-03-30T11:44:44.977Z,5.40
2023-03-30T11:47:30.969Z,4.40
2023-03-30T11:50:14.739Z,5.50
2023-03-30T11:52:50.117Z,4.15
2023-03-30T11:55:28.969Z,3.65
2023-03-30T11:58:07.933Z,4.28
2023-03-30T12:00:49.156Z,4.97
2023-03-30T12:03:28.032Z,6.35
2023-03-30T12:06:12.911Z,7.22
2023-03-30T12:08:56.277Z,6.63
2023-03-30T12:11:34.292Z,4.28
2023-03-30T12:18:26.172Z,4.07
2023-03-30T12:21:04.122Z,5.55
2023-03-30T12:23:43.085Z,6.13
2023-03-30T12:26:23.535Z,5.43
2023-03-30T12:29:40.573Z,3.58
2023-03-30T12:31:52.467Z,4.80
2023-03-30T12:34:20.896Z,5.63
2023-03-30T12:36:55.191Z,6.22
2023-03-30T12:39:31.207Z,4.88
2023-03-30T12:42:06.681Z,5.50
2023-03-30T12:44:42.732Z,5.80
2023-03-30T12:47:32.988Z,5.90
2023-03-30T12:50:15.916Z,5.55
2023-03-30T12:53:01.858Z,3.72
2023-03-30T12:55:43.325Z,6.93
2023-03-30T12:58:43.944Z,6.55
2023-03-30T13:01:24.889Z,7.78
2023-03-30T13:03:54.139Z,5.78
2023-03-30T13:06:29.786Z,5.45
2023-03-30T13:09:25.268Z,4.35
2023-03-30T13:12:22.069Z,4.00
2023-03-30T13:14:59.351Z,5.45
2023-03-30T13:17:27.732Z,6.78
2023-03-30T13:20:28.114Z,5.03
2023-03-30T13:23:05.897Z,7.93
2023-03-30T13:25:45.329Z,7.32
2023-03-30T13:28:48.768Z,4.10
2023-03-30T13:31:37.514Z,3.65
2023-03-30T13:34:17.315Z,4.15
2023-03-30T13:36:55.075Z,4.43
2023-03-30T13:39:28.949Z,4.80
2023-03-30T13:42:13.090Z,3.67
2023-03-30T13:44:56.781Z,2.97
2023-03-30T13:47:41.720Z,3.67
2023-03-30T13:50:21.467Z,4.45
2023-03-30T13:52:51.164Z,3.63
2023-03-30T13:55:33.133Z,4.80
2023-03-30T13:58:05.635Z,3.63
2023-03-30T14:00:44.737Z,6.20
2023-03-30T14:03:31.471Z,3.13
2023-03-30T14:06:05.505Z,3.67
2023-03-30T14:08:35.435Z,4.10
2023-03-30T14:11:06.890Z,3.60
2023-03-30T14:13:38.485Z,4.35
2023-03-30T14:16:08.179Z,5.80
2023-03-30T14:18:36.502Z,3.30
2023-03-30T14:21:07.519Z,3.78
2023-03-30T14:23:38.201Z,7.05
2023-03-30T14:26:07.601Z,4.47
2023-03-30T14:28:38.372Z,3.30
2023-03-30T14:31:13.282Z,2.20
2023-03-30T14:33:41.372Z,3.03
2023-03-30T14:36:12.497Z,3.17
2023-03-30T14:38:42.297Z,2.08
2023-03-30T14:41:14.467Z,3.38
2023-03-30T14:43:51.653Z,4.07
2023-03-30T14:46:19.401Z,2.65
2023-03-30T14:48:50.694Z,3.17
2023-03-30T14:51:27.003Z,3.30
2023-03-30T14:53:57.667Z,2.45
2023-03-30T14:56:25.875Z,4.72
2023-03-30T14:58:56.202Z,4.05
2023-03-30T15:01:31.063Z,4.47
2023-03-30T15:04:00.765Z,3.50
2023-03-30T15:06:30.962Z,1.83
2023-03-30T15:09:02.423Z,4.57
2023-03-30T15:11:32.416Z,3.22
2023-03-30T15:14:08.829Z,4.93
2023-03-30T15:16:38.462Z,3.05
2023-03-30T15:19:13.500Z,2.65
2023-03-30T15:21:41.674Z,2.33
2023-03-30T15:24:17.262Z,4.40
2023-03-30T15:26:47.578Z,3.22
2023-03-30T15:29:19.189Z,3.50
2023-03-30T15:31:46.763Z,2.30
2023-03-30T15:34:16.892Z,2.78
2023-03-30T15:36:45.489Z,1.80
2023-03-30T15:39:25.481Z,2.17
2023-03-30T15:42:01.460Z,3.08
2023-03-30T15:44:33.756Z,1.75
2023-03-30T15:47:02.190Z,2.87
2023-03-30T16:02:42.407Z,2.22
2023-03-30T16:05:18.360Z,2.00
2023-03-30T16:07:46.135Z,3.65
2023-03-30T16:10:15.305Z,4.20
2023-03-30T16:12:44.638Z,2.58
2023-03-30T16:15:14.666Z,2.78
2023-03-30T16:17:42.970Z,3.03
2023-03-30T16:20:17.412Z,3.63
2023-03-30T16:22:47.275Z,2.28
2023-03-30T16:25:15.889Z,2.92
2023-03-30T16:27:44.325Z,3.33
2023-03-30T16:30:18.066Z,5.05
2023-03-30T16:32:46.222Z,3.28
2023-03-30T16:35:16.262Z,1.95
2023-03-30T16:37:43.895Z,3.08
2023-03-30T16:40:20.025Z,2.58
2023-03-30T16:42:47.701Z,2.63
2023-03-30T16:45:15.522Z,3.53
2023-03-30T16:47:44.190Z,2.55
2023-03-30T16:50:20.822Z,1.85
2023-03-30T16:52:48.447Z,3.00
2023-03-30T16:55:16.554Z,3.20
2023-03-30T16:57:44.470Z,4.07
2023-03-30T17:00:19.728Z,2.33
2023-03-30T17:02:47.557Z,4.15
2023-03-30T17:05:15.375Z,2.45
2023-03-30T17:07:44.656Z,4.05
2023-03-30T17:10:26.332Z,3.22
2023-03-30T17:12:55.419Z,2.88
2023-03-30T17:15:24.661Z,2.72
2023-03-30T17:17:52.834Z,3.58
2023-03-30T17:20:24.697Z,5.03
2023-03-30T17:22:53.665Z,2.40
2023-03-30T17:25:23.688Z,5.53
2023-03-30T17:27:52.404Z,4.15
2023-03-30T17:30:23.734Z,5.45
2023-03-30T17:32:51.820Z,5.80
2023-03-30T17:35:19.591Z,5.28
2023-03-30T17:37:47.185Z,3.13
2023-03-30T17:40:22.347Z,5.00
2023-03-30T17:42:50.513Z,5.45
2023-03-30T17:45:19.929Z,3.88
2023-03-30T17:47:48.515Z,4.97
2023-03-30T17:50:20.824Z,4.55
2023-03-30T17:52:48.575Z,6.93
2023-03-30T17:55:19.398Z,6.00
2023-03-30T17:57:47.090Z,4.97
2023-03-30T18:00:21.432Z,5.05
2023-03-30T18:02:49.733Z,3.58
2023-03-30T18:05:17.968Z,5.95
2023-03-30T18:07:46.504Z,10.73
2023-03-30T18:10:20.332Z,5.80
2023-03-30T18:12:48.798Z,8.95
2023-03-30T18:15:18.645Z,6.47
2023-03-30T18:17:46.642Z,12.25
2023-03-30T18:20:27.459Z,8.60
2023-03-30T18:22:55.080Z,8.15
2023-03-30T18:25:32.408Z,4.20
2023-03-30T18:28:01.098Z,6.70
2023-03-30T18:30:30.456Z,5.30
2023-03-30T18:32:58.681Z,6.28
2023-03-30T18:35:28.724Z,4.25
2023-03-30T18:37:57.253Z,3.55
2023-03-30T18:40:31.219Z,6.40
2023-03-30T18:43:00.899Z,6.55
2023-03-30T18:45:30.265Z,5.40
2023-03-30T18:47:59.434Z,6.63
2023-03-30T18:50:33.082Z,7.63
2023-03-30T18:53:02.295Z,6.22
2023-03-30T18:55:31.993Z,3.25
2023-03-30T18:57:59.669Z,7.82
2023-03-30T19:00:29.178Z,4.15
2023-03-30T19:02:57.541Z,5.80
2023-03-30T19:05:27.254Z,8.27
2023-03-30T19:07:55.903Z,8.65
2023-03-30T19:10:26.561Z,5.18
2023-03-30T19:12:56.590Z,4.35
2023-03-30T19:15:26.675Z,4.50
2023-03-30T19:17:55.220Z,5.28
2023-03-30T19:20:24.687Z,3.80
2023-03-30T19:22:52.679Z,4.40
2023-03-30T19:25:22.501Z,4.45
2023-03-30T19:28:01.927Z,5.50
2023-03-30T19:30:33.386Z,6.43
2023-03-30T19:33:04.319Z,4.18
2023-03-30T19:35:32.914Z,3.58
2023-03-30T19:38:00.888Z,6.40
2023-03-30T19:40:28.577Z,5.07
2023-03-30T19:42:56.181Z,5.30
2023-03-30T19:45:25.154Z,4.70
2023-03-30T19:47:54.302Z,6.95
2023-03-30T19:50:24.751Z,5.10
2023-03-30T19:52:54.805Z,4.07
2023-03-30T19:55:22.621Z,5.47
2023-03-30T19:57:50.477Z,2.50
2023-03-30T20:00:19.689Z,4.90
2023-03-30T20:02:48.886Z,3.45
2023-03-30T20:05:18.702Z,3.47
2023-03-30T20:07:47.378Z,4.57
2023-03-30T20:10:18.728Z,6.30
2023-03-30T20:12:46.590Z,6.63
2023-03-30T20:15:14.238Z,4.30
2023-03-30T20:17:42.123Z,4.65
2023-03-30T20:20:12.593Z,4.70
2023-03-30T20:22:43.110Z,5.60
2023-03-30T20:25:13.356Z,4.35
2023-03-30T20:27:41.406Z,4.15
2023-03-30T20:30:11.534Z,5.32
2023-03-30T20:32:39.232Z,6.07
2023-03-30T20:35:08.272Z,5.22
2023-03-30T20:37:35.948Z,6.90
2023-03-30T20:40:09.728Z,8.40
2023-03-30T20:42:39.643Z,7.05
2023-03-30T20:45:08.620Z,6.55
2023-03-30T20:47:36.297Z,5.10
2023-03-30T20:50:04.601Z,6.10
2023-03-30T20:52:32.227Z,6.07
2023-03-30T20:54:59.826Z,6.57
2023-03-30T20:57:28.828Z,5.18
2023-03-30T20:59:56.484Z,6.40
2023-03-30T21:02:24.092Z,8.75
2023-03-30T21:04:52.927Z,5.85
2023-03-30T21:07:20.483Z,5.22
2023-03-30T21:09:48.052Z,4.60
2023-03-30T21:12:15.712Z,6.07
2023-03-30T21:14:45.833Z,6.95
2023-03-30T21:17:13.777Z,7.15
2023-03-30T21:19:41.362Z,6.63
2023-03-30T21:22:08.978Z,8.60
2023-03-30T21:24:36.635Z,6.45
2023-03-30T21:27:04.349Z,6.13
2023-03-30T21:29:32.393Z,7.30
2023-03-30T21:32:01.415Z,8.82
2023-03-30T21:34:29.010Z,5.85
2023-03-30T21:36:56.747Z,7.07
2023-03-30T21:39:25.037Z,5.72
2023-03-30T21:41:52.570Z,7.60
2023-03-30T21:44:20.254Z,9.63
2023-03-30T21:46:47.800Z,4.72
2023-03-30T21:49:17.118Z,3.75
2023-03-30T21:51:44.696Z,6.28
2023-03-30T21:54:12.361Z,8.15
2023-03-30T21:56:39.886Z,9.48
2023-03-30T21:59:07.863Z,7.82
2023-03-30T22:01:35.574Z,5.78
2023-03-30T22:04:06.015Z,5.95
2023-03-30T22:06:35.427Z,7.97
2023-03-30T22:09:03.063Z,5.45
2023-03-30T22:11:30.841Z,5.30
2023-03-30T22:13:58.579Z,6.57
2023-03-30T22:16:28.976Z,8.82
2023-03-30T22:18:56.791Z,5.72
2023-03-30T22:21:25.937Z,5.07
2023-03-30T22:23:55.534Z,7.13
2023-03-30T22:26:23.478Z,4.75
2023-03-30T22:28:51.136Z,6.20
2023-03-30T22:31:18.849Z,4.70
2023-03-30T22:33:47.908Z,5.80
2023-03-30T22:36:18.809Z,5.20
2023-03-30T22:38:46.718Z,7.47
2023-03-30T22:41:15.933Z,6.00
2023-03-30T22:43:43.534Z,4.72
2023-03-30T22:46:11.679Z,5.85
2023-03-30T22:48:41.275Z,6.57
2023-03-30T22:51:09.080Z,6.03
2023-03-30T22:53:38.486Z,4.97
2023-03-30T22:56:07.524Z,4.75
2023-03-30T22:58:37.001Z,5.75
2023-03-30T23:01:06.972Z,4.43
2023-03-30T23:03:34.803Z,7.72
2023-03-30T23:06:02.529Z,6.85
2023-03-30T23:08:30.843Z,5.38
2023-03-30T23:11:03.742Z,6.60
2023-03-30T23:13:31.889Z,3.95
2023-03-30T23:16:01.409Z,5.35
2023-03-30T23:18:29.191Z,8.25
2023-03-30T23:20:57.909Z,4.93
2023-03-30T23:23:25.622Z,5.72
2023-03-30T23:25:53.485Z,6.65
2023-03-30T23:28:21.274Z,6.38
2023-03-30T23:30:49.001Z,6.38
2023-03-30T23:33:18.078Z,5.82
2023-03-30T23:35:50.148Z,4.82
2023-03-30T23:38:18.051Z,44.58
2023-03-30T23:40:46.363Z,33.85
2023-03-30T23:43:14.038Z,19.50
2023-03-30T23:45:43.625Z,17.58
2023-03-30T23:48:11.340Z,8.10
2023-03-30T23:50:41.186Z,5.57
2023-03-30T23:53:09.405Z,6.05
2023-03-30T23:55:37.627Z,6.45
2023-03-30T23:58:05.916Z,5.90
